createdAt,value
2018-07-17T00:00:42.994Z,17.10
2018-07-17T00:01:42.933Z,16.88
2018-07-17T00:02:43.021Z,17.07
2018-07-17T00:03:42.963Z,16.97
2018-07-17T00:04:42.975Z,16.98
2018-07-17T00:05:43.256Z,16.92
2018-07-17T00:06:42.909Z,16.97
2018-07-17T00:07:42.945Z,16.90
2018-07-17T00:08:42.924Z,16.90
2018-07-17T00:09:43.300Z,16.84
2018-07-17T00:10:43.058Z,16.92
2018-07-17T00:11:42.872Z,16.79
2018-07-17T00:12:43.191Z,16.77
2018-07-17T00:13:42.847Z,16.77
2018-07-17T00:14:42.799Z,16.74
2018-07-17T00:15:42.703Z,16.74
2018-07-17T00:16:42.781Z,16.74
2018-07-17T00:17:42.730Z,16.83
2018-07-17T00:18:42.768Z,16.82
2018-07-17T00:19:43.048Z,16.91
2018-07-17T00:20:42.768Z,16.80
2018-07-17T00:21:42.760Z,16.80
2018-07-17T00:22:42.764Z,16.87
2018-07-17T00:23:42.695Z,16.82
2018-07-17T00:24:42.633Z,16.87
2018-07-17T00:25:42.633Z,16.74
2018-07-17T00:26:42.984Z,16.73
2018-07-17T00:27:42.663Z,16.80
2018-07-17T00:28:42.599Z,16.77
2018-07-17T00:29:42.529Z,16.84
2018-07-17T00:30:42.629Z,16.76
2018-07-17T00:31:42.570Z,16.80
2018-07-17T00:32:42.621Z,16.92
2018-07-17T00:33:43.119Z,16.92
2018-07-17T00:34:42.527Z,16.98
2018-07-17T00:35:42.589Z,16.92
2018-07-17T00:37:42.545Z,16.95
2018-07-17T00:38:42.402Z,16.91
2018-07-17T00:39:42.923Z,16.88
2018-07-17T00:40:42.593Z,16.82
2018-07-17T00:42:42.526Z,16.72
2018-07-17T00:43:42.541Z,16.64
2018-07-17T00:44:42.341Z,16.59
2018-07-17T00:46:42.620Z,16.51
2018-07-17T00:48:43.631Z,16.47
2018-07-17T00:52:42.557Z,16.40
2018-07-17T00:53:42.344Z,16.33
2018-07-17T00:54:42.539Z,16.28
2018-07-17T00:55:42.493Z,16.29
2018-07-17T00:56:42.260Z,16.33
2018-07-17T00:57:42.271Z,16.29
2018-07-17T00:58:42.610Z,16.26
2018-07-17T00:59:42.236Z,16.34
2018-07-17T01:00:42.196Z,16.26
2018-07-17T01:01:42.212Z,16.36
2018-07-17T01:02:42.147Z,16.40
2018-07-17T01:03:42.055Z,16.24
2018-07-17T01:04:42.555Z,16.25
2018-07-17T01:05:42.166Z,16.34
2018-07-17T01:06:42.143Z,16.29
2018-07-17T01:07:42.109Z,16.29
2018-07-17T01:08:41.988Z,16.26
2018-07-17T01:09:42.115Z,16.29
2018-07-17T01:10:42.316Z,16.25
2018-07-17T01:11:42.102Z,16.24
2018-07-17T01:12:42.014Z,16.17
2018-07-17T01:13:42.056Z,16.18
2018-07-17T01:14:42.075Z,16.14
2018-07-17T01:15:42.125Z,16.06
2018-07-17T01:16:42.308Z,15.99
2018-07-17T01:17:41.930Z,15.95
2018-07-17T01:18:41.923Z,15.85
2018-07-17T01:19:41.844Z,15.90
2018-07-17T01:20:42.010Z,15.91
2018-07-17T01:21:41.928Z,15.90
2018-07-17T01:22:42.000Z,15.83
2018-07-17T01:23:42.085Z,15.77
2018-07-17T01:24:41.899Z,15.78
2018-07-17T01:25:41.877Z,15.78
2018-07-17T01:26:41.855Z,15.77
2018-07-17T01:27:42.257Z,15.76
2018-07-17T01:28:41.883Z,15.80
2018-07-17T01:29:41.774Z,15.69
2018-07-17T01:30:42.049Z,15.68
2018-07-17T01:31:41.792Z,15.65
2018-07-17T01:32:41.805Z,15.65
2018-07-17T01:33:41.717Z,15.60
2018-07-17T01:34:41.698Z,15.65
2018-07-17T01:35:41.737Z,15.51
2018-07-17T01:36:41.744Z,15.60
2018-07-17T01:37:42.068Z,15.60
2018-07-17T01:38:41.637Z,15.62
2018-07-17T01:39:41.570Z,15.62
2018-07-17T01:40:41.599Z,15.54
2018-07-17T01:41:41.541Z,15.58
2018-07-17T01:42:41.645Z,15.51
2018-07-17T01:43:41.675Z,15.56
2018-07-17T01:44:41.887Z,15.56
2018-07-17T01:45:41.631Z,15.54
2018-07-17T01:46:41.564Z,15.59
2018-07-17T01:47:41.579Z,15.51
2018-07-17T01:48:41.433Z,15.44
2018-07-17T01:49:41.564Z,15.56
2018-07-17T01:50:41.416Z,15.56
2018-07-17T01:51:41.865Z,15.62
2018-07-17T01:52:41.428Z,15.51
2018-07-17T01:53:41.365Z,15.51
2018-07-17T01:55:41.444Z,15.45
2018-07-17T01:56:41.881Z,15.51
2018-07-17T01:58:41.638Z,15.48
2018-07-17T02:01:42.792Z,15.54
2018-07-17T02:02:41.347Z,15.52
2018-07-17T02:03:41.289Z,15.48
2018-07-17T02:05:41.648Z,15.66
2018-07-17T02:07:41.396Z,15.62
2018-07-17T02:08:41.288Z,15.65
2018-07-17T02:09:41.278Z,15.60
2018-07-17T02:10:41.672Z,15.54
2018-07-17T02:13:41.536Z,15.60
2018-07-17T02:14:41.205Z,15.60
2018-07-17T02:16:41.051Z,15.44
2018-07-17T02:17:41.087Z,15.44
2018-07-17T02:18:41.196Z,15.40
2018-07-17T02:20:41.439Z,15.35
2018-07-17T02:21:41.055Z,15.32
2018-07-17T02:22:41.042Z,15.32
2018-07-17T02:23:41.630Z,15.33
2018-07-17T02:24:41.025Z,15.32
2018-07-17T02:25:40.992Z,15.23
2018-07-17T02:26:41.355Z,15.19
2018-07-17T02:27:40.996Z,15.12
2018-07-17T02:28:41.623Z,15.19
2018-07-17T02:31:40.953Z,15.03
2018-07-17T02:32:40.851Z,15.01
2018-07-17T02:34:41.952Z,15.03
2018-07-17T02:35:40.905Z,15.12
2018-07-17T02:36:40.794Z,15.03
2018-07-17T02:37:40.829Z,14.97
2018-07-17T02:38:40.895Z,15.10
2018-07-17T02:39:40.744Z,15.01
2018-07-17T02:40:41.074Z,15.05
2018-07-17T02:41:40.748Z,14.96
2018-07-17T02:42:40.700Z,15.08
2018-07-17T02:43:40.785Z,15.05
2018-07-17T02:44:40.711Z,15.08
2018-07-17T02:45:40.677Z,15.03
2018-07-17T02:46:41.051Z,15.03
2018-07-17T02:47:41.196Z,15.04
2018-07-17T02:48:40.622Z,15.08
2018-07-17T02:49:40.595Z,15.07
2018-07-17T02:50:40.857Z,14.99
2018-07-17T02:51:40.574Z,15.01
2018-07-17T02:52:40.585Z,14.97
2018-07-17T02:53:40.907Z,14.95
2018-07-17T02:54:40.482Z,14.96
2018-07-17T02:55:40.553Z,14.96
2018-07-17T02:56:40.563Z,14.93
2018-07-17T02:57:40.587Z,14.90
2018-07-17T02:58:40.446Z,14.92
2018-07-17T02:59:40.551Z,14.82
2018-07-17T03:00:40.913Z,14.78
2018-07-17T03:01:40.495Z,14.77
2018-07-17T03:02:40.421Z,14.85
2018-07-17T03:03:40.506Z,14.86
2018-07-17T03:04:41.139Z,14.82
2018-07-17T03:08:40.813Z,14.78
2018-07-17T03:09:40.380Z,14.77
2018-07-17T03:10:40.266Z,14.67
2018-07-17T03:12:40.277Z,14.74
2018-07-17T03:14:40.553Z,14.67
2018-07-17T03:15:40.298Z,14.66
2018-07-17T03:16:40.301Z,14.58
2018-07-17T03:17:40.276Z,14.58
2018-07-17T03:18:40.280Z,14.56
2018-07-17T03:19:40.179Z,14.59
2018-07-17T03:20:40.201Z,14.63
2018-07-17T03:21:40.690Z,14.55
2018-07-17T03:22:40.069Z,14.52
2018-07-17T03:23:40.109Z,14.55
2018-07-17T03:24:40.250Z,14.53
2018-07-17T03:25:40.055Z,14.45
2018-07-17T03:26:40.116Z,14.51
2018-07-17T03:27:40.426Z,14.51
2018-07-17T03:28:40.557Z,14.52
2018-07-17T03:29:39.963Z,14.44
2018-07-17T03:30:40.002Z,14.58
2018-07-17T03:31:40.169Z,14.58
2018-07-17T03:32:40.055Z,14.69
2018-07-17T03:33:39.909Z,14.61
2018-07-17T03:34:40.009Z,14.59
2018-07-17T03:35:40.179Z,14.53
2018-07-17T03:36:39.984Z,14.56
2018-07-17T03:37:39.857Z,14.56
2018-07-17T03:38:39.880Z,14.55
2018-07-17T03:39:39.875Z,14.63
2018-07-17T03:40:40.066Z,14.52
2018-07-17T03:41:40.560Z,14.55
2018-07-17T03:42:39.883Z,14.56
2018-07-17T03:43:39.813Z,14.41
2018-07-17T03:44:39.855Z,14.36
2018-07-17T03:45:39.797Z,14.33
2018-07-17T03:46:39.715Z,14.28
2018-07-17T03:47:40.140Z,14.26
2018-07-17T03:48:39.811Z,14.23
2018-07-17T03:49:39.720Z,14.16
2018-07-17T03:50:39.698Z,14.16
2018-07-17T03:51:39.771Z,14.19
2018-07-17T03:52:39.745Z,14.19
2018-07-17T03:53:40.113Z,14.15
2018-07-17T03:54:39.657Z,14.16
2018-07-17T03:55:39.669Z,14.05
2018-07-17T03:56:39.685Z,14.01
2018-07-17T03:57:39.724Z,14.08
2018-07-17T03:58:39.981Z,14.13
2018-07-17T03:59:40.182Z,14.01
2018-07-17T04:00:39.513Z,14.13
2018-07-17T04:01:39.496Z,14.19
2018-07-17T04:02:39.522Z,14.23
2018-07-17T04:04:39.596Z,14.19
2018-07-17T04:05:39.466Z,14.21
2018-07-17T04:07:40.013Z,14.16
2018-07-17T04:09:39.709Z,14.27
2018-07-17T04:12:39.584Z,14.34
2018-07-17T04:13:39.401Z,14.30
2018-07-17T04:14:39.947Z,14.36
2018-07-17T04:15:40.839Z,14.31
2018-07-17T04:16:39.958Z,14.44
2018-07-17T04:17:39.343Z,14.46
2018-07-17T04:18:39.304Z,14.40
2018-07-17T04:19:39.302Z,14.48
2018-07-17T04:20:39.286Z,14.41
2018-07-17T04:22:39.667Z,14.52
2018-07-17T04:24:39.259Z,14.58
2018-07-17T04:25:39.338Z,14.56
2018-07-17T04:27:39.103Z,14.55
2018-07-17T04:28:39.121Z,14.56
2018-07-17T04:29:39.379Z,14.59
2018-07-17T04:30:39.067Z,14.63
2018-07-17T04:31:39.095Z,14.74
2018-07-17T04:32:39.044Z,14.77
2018-07-17T04:33:39.153Z,14.77
2018-07-17T04:34:39.035Z,14.74
2018-07-17T04:35:39.082Z,14.90
2018-07-17T04:36:39.353Z,14.93
2018-07-17T04:38:38.980Z,14.93
2018-07-17T04:39:39.341Z,15.05
2018-07-17T04:40:38.899Z,15.11
2018-07-17T04:41:38.886Z,15.10
2018-07-17T04:42:38.961Z,15.22
2018-07-17T04:43:39.150Z,15.29
2018-07-17T04:44:38.912Z,15.33
2018-07-17T04:45:38.994Z,15.29
2018-07-17T04:46:38.953Z,15.38
2018-07-17T04:47:38.953Z,15.47
2018-07-17T04:48:38.808Z,15.45
2018-07-17T04:49:38.766Z,15.54
2018-07-17T04:50:39.053Z,15.63
2018-07-17T04:51:38.825Z,15.63
2018-07-17T04:52:38.716Z,15.77
2018-07-17T04:53:38.703Z,15.85
2018-07-17T04:54:38.716Z,15.87
2018-07-17T04:55:38.681Z,15.93
2018-07-17T04:56:38.728Z,16.06
2018-07-17T04:57:39.195Z,16.13
2018-07-17T04:58:38.642Z,16.21
2018-07-17T04:59:38.630Z,16.33
2018-07-17T05:00:38.860Z,16.34
2018-07-17T05:01:38.701Z,16.39
2018-07-17T05:02:39.579Z,16.43
2018-07-17T05:03:38.623Z,16.49
2018-07-17T05:04:38.849Z,16.57
2018-07-17T05:05:38.532Z,16.55
2018-07-17T05:06:38.585Z,16.67
2018-07-17T05:07:38.561Z,16.61
2018-07-17T05:08:38.634Z,16.67
2018-07-17T05:09:39.026Z,16.72
2018-07-17T05:10:38.773Z,16.73
2018-07-17T05:11:38.448Z,16.82
2018-07-17T05:12:38.448Z,16.83
2018-07-17T05:13:38.639Z,16.80
2018-07-17T05:14:38.415Z,16.92
2018-07-17T05:15:38.451Z,16.92
2018-07-17T05:16:38.788Z,16.90
2018-07-17T05:17:38.375Z,16.91
2018-07-17T05:18:38.412Z,17.01
2018-07-17T05:19:38.391Z,17.01
2018-07-17T05:20:38.340Z,17.16
2018-07-17T05:21:38.373Z,17.10
2018-07-17T05:22:38.805Z,17.25
2018-07-17T05:23:38.372Z,17.25
2018-07-17T05:24:38.385Z,17.37
2018-07-17T05:26:38.248Z,17.39
2018-07-17T05:27:38.307Z,17.43
2018-07-17T05:29:38.211Z,17.46
2018-07-17T05:30:38.314Z,17.50
2018-07-17T05:31:38.297Z,17.57
2018-07-17T05:32:38.169Z,17.73
2018-07-17T05:33:38.225Z,17.75
2018-07-17T05:34:38.442Z,17.83
2018-07-17T05:35:38.216Z,17.87
2018-07-17T05:36:38.128Z,17.99
2018-07-17T05:37:38.100Z,17.93
2018-07-17T05:38:38.190Z,17.96
2018-07-17T05:39:38.140Z,18.01
2018-07-17T05:40:38.378Z,18.09
2018-07-17T05:41:38.048Z,18.05
2018-07-17T05:42:38.044Z,18.12
2018-07-17T05:43:38.023Z,18.23
2018-07-17T05:44:38.070Z,18.42
2018-07-17T05:46:38.442Z,18.61
2018-07-17T05:47:37.973Z,18.52
2018-07-17T05:48:37.954Z,18.58
2018-07-17T05:49:37.955Z,18.58
2018-07-17T05:50:38.245Z,18.57
2018-07-17T05:51:37.918Z,18.52
2018-07-17T05:52:37.963Z,18.64
2018-07-17T05:53:38.193Z,18.70
2018-07-17T05:54:37.886Z,18.68
2018-07-17T05:55:37.872Z,18.83
2018-07-17T05:56:38.889Z,18.91
2018-07-17T05:57:37.847Z,19.01
2018-07-17T05:58:37.906Z,19.13
2018-07-17T05:59:37.827Z,19.23
2018-07-17T06:00:38.120Z,19.24
2018-07-17T06:01:37.801Z,19.26
2018-07-17T06:02:37.788Z,19.35
2018-07-17T06:03:37.769Z,19.30
2018-07-17T06:04:37.808Z,19.32
2018-07-17T06:05:37.748Z,19.39
2018-07-17T06:06:37.841Z,19.42
2018-07-17T06:07:38.042Z,19.42
2018-07-17T06:08:37.790Z,19.54
2018-07-17T06:09:37.742Z,19.54
2018-07-17T06:10:38.265Z,19.59
2018-07-17T06:11:37.890Z,19.62
2018-07-17T06:12:38.030Z,19.67
2018-07-17T06:13:37.737Z,19.67
2018-07-17T06:14:37.944Z,19.68
2018-07-17T06:15:37.627Z,19.81
2018-07-17T06:16:37.663Z,19.78
2018-07-17T06:17:37.606Z,19.77
2018-07-17T06:18:37.837Z,19.78
2018-07-17T06:19:37.591Z,19.81
2018-07-17T06:20:37.567Z,19.93
2018-07-17T06:21:37.854Z,19.99
2018-07-17T06:22:37.597Z,20.05
2018-07-17T06:23:37.545Z,20.05
2018-07-17T06:24:37.525Z,20.22
2018-07-17T06:25:37.515Z,20.36
2018-07-17T06:26:37.497Z,20.30
2018-07-17T06:28:37.781Z,20.56
2018-07-17T06:30:37.457Z,20.75
2018-07-17T06:31:37.511Z,20.79
2018-07-17T06:32:37.430Z,20.77
2018-07-17T06:33:37.427Z,20.85
2018-07-17T06:34:37.455Z,20.85
2018-07-17T06:35:37.693Z,21.01
2018-07-17T06:36:37.392Z,20.98
2018-07-17T06:37:37.374Z,21.04
2018-07-17T06:38:37.359Z,21.07
2018-07-17T06:39:37.350Z,21.07
2018-07-17T06:40:37.400Z,21.18
2018-07-17T06:41:37.647Z,21.23
2018-07-17T06:42:37.317Z,21.20
2018-07-17T06:43:37.323Z,21.23
2018-07-17T06:44:37.357Z,21.26
2018-07-17T06:45:37.285Z,21.32
2018-07-17T06:46:37.389Z,21.37
2018-07-17T06:47:37.911Z,21.43
2018-07-17T06:48:37.250Z,21.48
2018-07-17T06:50:37.405Z,21.60
2018-07-17T06:51:37.221Z,21.59
2018-07-17T06:53:37.548Z,21.56
2018-07-17T06:54:37.211Z,21.60
2018-07-17T06:55:37.179Z,21.77
2018-07-17T06:56:37.168Z,21.71
2018-07-17T06:57:37.196Z,21.69
2018-07-17T06:58:37.143Z,21.77
2018-07-17T06:59:37.480Z,21.82
2018-07-17T07:00:37.124Z,21.81
2018-07-17T07:01:37.115Z,21.90
2018-07-17T07:02:37.107Z,22.07
2018-07-17T07:03:37.107Z,21.98
2018-07-17T07:04:37.103Z,22.15
2018-07-17T07:05:37.372Z,22.15
2018-07-17T07:06:37.070Z,22.21
2018-07-17T07:07:37.046Z,22.27
2018-07-17T07:08:37.070Z,22.36
2018-07-17T07:09:37.033Z,22.25
2018-07-17T07:10:37.028Z,22.34
2018-07-17T07:11:37.087Z,22.46
2018-07-17T07:12:37.349Z,22.53
2018-07-17T07:13:36.986Z,22.52
2018-07-17T07:14:36.985Z,22.53
2018-07-17T07:15:36.972Z,22.46
2018-07-17T07:16:36.954Z,22.62
2018-07-17T07:17:37.004Z,22.67
2018-07-17T07:18:37.261Z,22.81
2018-07-17T07:19:36.922Z,22.78
2018-07-17T07:20:37.136Z,22.76
2018-07-17T07:21:37.766Z,22.88
2018-07-17T07:22:36.898Z,22.93
2018-07-17T07:23:36.945Z,22.91
2018-07-17T07:24:37.181Z,22.93
2018-07-17T07:25:36.875Z,22.93
2018-07-17T07:26:36.870Z,23.06
2018-07-17T07:27:36.847Z,23.11
2018-07-17T07:28:36.864Z,23.25
2018-07-17T07:29:36.879Z,23.37
2018-07-17T07:30:37.065Z,23.51
2018-07-17T07:31:37.145Z,23.56
2018-07-17T07:32:36.917Z,23.69
2018-07-17T07:33:36.806Z,23.63
2018-07-17T07:34:36.984Z,23.61
2018-07-17T07:35:36.816Z,23.74
2018-07-17T07:36:36.757Z,23.84
2018-07-17T07:37:37.048Z,24.01
2018-07-17T07:38:37.443Z,24.13
2018-07-17T07:39:36.731Z,24.37
2018-07-17T07:40:36.869Z,24.44
2018-07-17T07:41:36.860Z,24.56
2018-07-17T07:42:36.703Z,24.55
2018-07-17T07:43:37.291Z,24.65
2018-07-17T07:44:36.990Z,24.81
2018-07-17T07:45:36.689Z,24.79
2018-07-17T07:46:36.685Z,25.03
2018-07-17T07:47:36.723Z,25.14
2018-07-17T07:48:36.647Z,25.19
2018-07-17T07:49:36.632Z,25.30
2018-07-17T07:50:37.183Z,25.33
2018-07-17T07:51:36.624Z,25.48
2018-07-17T07:52:36.612Z,25.67
2018-07-17T07:54:36.693Z,25.92
2018-07-17T07:55:36.692Z,26.10
2018-07-17T07:56:36.870Z,26.19
2018-07-17T07:57:36.579Z,26.07
2018-07-17T07:58:36.575Z,26.38
2018-07-17T07:59:36.638Z,26.53
2018-07-17T08:00:36.804Z,26.39
2018-07-17T08:01:36.575Z,26.60
2018-07-17T08:02:36.878Z,26.83
2018-07-17T08:03:36.531Z,26.89
2018-07-17T08:04:36.717Z,26.82
2018-07-17T08:05:36.534Z,26.83
2018-07-17T08:06:36.585Z,26.94
2018-07-17T08:07:36.533Z,27.00
2018-07-17T08:08:36.789Z,26.80
2018-07-17T08:09:36.486Z,27.00
2018-07-17T08:10:36.461Z,26.90
2018-07-17T08:11:36.922Z,26.82
2018-07-17T08:12:36.498Z,26.93
2018-07-17T08:13:38.906Z,27.10
2018-07-17T08:14:36.430Z,27.26
2018-07-17T08:15:36.428Z,27.49
2018-07-17T08:16:36.766Z,27.60
2018-07-17T08:17:36.459Z,27.80
2018-07-17T08:18:36.488Z,27.87
2018-07-17T08:19:36.437Z,27.78
2018-07-17T08:20:36.791Z,27.37
2018-07-17T08:21:36.408Z,27.44
2018-07-17T08:22:36.378Z,27.75
2018-07-17T08:23:36.384Z,27.80
2018-07-17T08:24:36.438Z,28.06
2018-07-17T08:25:36.407Z,28.13
2018-07-17T08:26:36.647Z,28.30
2018-07-17T08:27:36.365Z,28.42
2018-07-17T08:28:36.481Z,28.61
2018-07-17T08:29:36.365Z,28.40
2018-07-17T08:30:36.379Z,28.31
2018-07-17T08:31:36.375Z,28.44
2018-07-17T08:32:36.623Z,28.46
2018-07-17T08:33:36.323Z,28.54
2018-07-17T08:34:36.307Z,28.66
2018-07-17T08:35:36.295Z,28.49
2018-07-17T08:36:36.684Z,28.47
2018-07-17T08:37:36.336Z,28.46
2018-07-17T08:38:36.317Z,28.47
2018-07-17T08:39:36.576Z,28.57
2018-07-17T08:40:36.272Z,28.71
2018-07-17T08:41:36.285Z,28.65
2018-07-17T08:42:36.309Z,28.46
2018-07-17T08:43:36.295Z,28.71
2018-07-17T08:44:36.287Z,28.75
2018-07-17T08:45:36.549Z,28.75
2018-07-17T08:46:36.231Z,28.69
2018-07-17T08:47:36.233Z,28.79
2018-07-17T08:49:36.487Z,29.34
2018-07-17T08:50:36.213Z,29.29
2018-07-17T08:51:36.571Z,29.24
2018-07-17T08:52:36.569Z,29.29
2018-07-17T08:54:36.321Z,29.09
2018-07-17T08:57:36.558Z,28.89
2018-07-17T08:58:36.275Z,29.07
2018-07-17T08:59:37.191Z,29.28
2018-07-17T09:00:36.578Z,29.19
2018-07-17T09:02:36.689Z,29.43
2018-07-17T09:03:36.600Z,29.36
2018-07-17T09:05:36.160Z,29.43
2018-07-17T09:06:36.219Z,29.54
2018-07-17T09:07:36.227Z,29.50
2018-07-17T09:08:36.254Z,29.49
2018-07-17T09:10:36.560Z,29.66
2018-07-17T09:11:36.270Z,29.68
2018-07-17T09:13:36.250Z,29.70
2018-07-17T09:14:36.164Z,29.61
2018-07-17T09:15:36.576Z,29.43
2018-07-17T09:16:36.179Z,29.29
2018-07-17T09:17:36.691Z,29.39
2018-07-17T09:18:36.350Z,29.63
2018-07-17T09:19:37.774Z,29.84
2018-07-17T09:20:36.139Z,30.00
2018-07-17T09:21:36.185Z,30.00
2018-07-17T09:23:37.392Z,30.11
2018-07-17T09:24:36.134Z,30.33
2018-07-17T09:25:36.123Z,30.39
2018-07-17T09:26:36.119Z,30.60
2018-07-17T09:27:36.183Z,30.58
2018-07-17T09:28:36.434Z,30.77
2018-07-17T09:29:36.676Z,30.88
2018-07-17T09:30:36.106Z,30.88
2018-07-17T09:31:36.486Z,30.97
2018-07-17T09:32:37.557Z,31.29
2018-07-17T09:33:36.189Z,31.49
2018-07-17T09:34:36.458Z,31.46
2018-07-17T09:35:36.274Z,31.45
2018-07-17T09:36:36.821Z,31.04
2018-07-17T09:37:37.504Z,30.97
2018-07-17T09:38:39.289Z,31.23
2018-07-17T09:39:36.570Z,31.23
2018-07-17T09:40:36.571Z,31.20
2018-07-17T09:41:36.584Z,31.20
2018-07-17T09:42:36.484Z,31.22
2018-07-17T09:43:38.088Z,31.26
2018-07-17T09:44:36.348Z,31.60
2018-07-17T09:45:36.089Z,31.97
2018-07-17T09:46:36.415Z,31.74
2018-07-17T09:47:36.308Z,31.70
2018-07-17T09:48:36.683Z,31.51
2018-07-17T09:49:36.196Z,31.63
2018-07-17T09:50:36.372Z,30.99
2018-07-17T09:51:36.319Z,30.36
2018-07-17T09:52:37.045Z,30.28
2018-07-17T09:53:36.120Z,30.56
2018-07-17T09:54:36.081Z,29.74
2018-07-17T09:55:36.080Z,29.99
2018-07-17T09:56:37.853Z,30.56
2018-07-17T09:59:36.424Z,31.04
2018-07-17T10:00:36.962Z,31.23
2018-07-17T10:01:36.188Z,31.42
2018-07-17T10:02:36.231Z,31.70
2018-07-17T10:03:36.441Z,31.63
2018-07-17T10:04:36.095Z,31.67
2018-07-17T10:05:37.004Z,31.74
2018-07-17T10:06:36.146Z,32.08
2018-07-17T10:07:36.191Z,32.33
2018-07-17T10:08:36.167Z,32.16
2018-07-17T10:09:37.642Z,32.31
2018-07-17T10:10:38.054Z,32.48
2018-07-17T10:11:36.709Z,32.54
2018-07-17T10:12:36.477Z,32.31
2018-07-17T10:13:36.508Z,32.19
2018-07-17T10:14:36.221Z,32.16
2018-07-17T10:15:36.228Z,32.09
2018-07-17T10:16:36.296Z,31.89
2018-07-17T10:17:36.599Z,31.71
2018-07-17T10:18:36.143Z,31.99
2018-07-17T10:19:36.629Z,32.13
2018-07-17T10:20:36.098Z,32.16
2018-07-17T10:21:36.327Z,32.20
2018-07-17T10:22:37.489Z,32.39
2018-07-17T10:23:36.562Z,32.32
2018-07-17T10:24:36.200Z,32.43
2018-07-17T10:25:36.168Z,32.60
2018-07-17T10:26:36.225Z,32.57
2018-07-17T10:27:36.224Z,32.61
2018-07-17T10:28:36.227Z,32.75
2018-07-17T10:29:36.484Z,32.80
2018-07-17T10:30:36.175Z,32.76
2018-07-17T10:33:36.242Z,33.27
2018-07-17T10:35:36.458Z,32.72
2018-07-17T10:36:36.159Z,32.55
2018-07-17T10:37:36.179Z,32.99
2018-07-17T10:38:37.501Z,33.24
2018-07-17T10:40:36.532Z,33.79
2018-07-17T10:41:36.607Z,33.51
2018-07-17T10:42:36.373Z,33.47
2018-07-17T10:43:36.404Z,33.45
2018-07-17T10:44:36.269Z,33.52
2018-07-17T10:45:36.134Z,33.57
2018-07-17T10:46:36.499Z,33.47
2018-07-17T10:47:36.197Z,33.84
2018-07-17T10:48:36.645Z,33.52
2018-07-17T10:50:37.026Z,33.95
2018-07-17T10:51:38.642Z,34.03
2018-07-17T10:53:36.591Z,34.07
2018-07-17T10:54:36.154Z,33.78
2018-07-17T10:55:36.263Z,33.66
2018-07-17T10:56:36.396Z,33.89
2018-07-17T10:57:36.212Z,34.00
2018-07-17T10:58:36.590Z,34.00
2018-07-17T10:59:36.501Z,34.10
2018-07-17T11:00:36.674Z,34.20
2018-07-17T11:01:36.283Z,33.82
2018-07-17T11:02:36.382Z,34.04
2018-07-17T11:03:37.683Z,33.89
2018-07-17T11:04:36.371Z,34.16
2018-07-17T11:06:36.492Z,34.19
2018-07-17T11:07:36.329Z,34.07
2018-07-17T11:08:36.252Z,33.55
2018-07-17T11:09:36.233Z,33.88
2018-07-17T11:12:42.893Z,34.52
2018-07-17T11:15:36.368Z,34.99
2018-07-17T11:16:36.281Z,35.23
2018-07-17T11:17:37.081Z,35.60
2018-07-17T11:20:36.676Z,33.95
2018-07-17T11:21:36.625Z,34.35
2018-07-17T11:22:36.321Z,34.53
2018-07-17T11:23:36.253Z,34.98
2018-07-17T11:24:37.453Z,35.51
2018-07-17T11:25:36.263Z,34.86
2018-07-17T11:26:36.986Z,35.28
2018-07-17T11:27:36.572Z,34.99
2018-07-17T11:28:36.410Z,34.26
2018-07-17T11:29:37.000Z,33.82
2018-07-17T11:30:36.683Z,34.01
2018-07-17T11:31:36.344Z,34.44
2018-07-17T11:33:36.609Z,34.67
2018-07-17T11:34:36.310Z,34.95
2018-07-17T11:36:36.745Z,35.28
2018-07-17T11:37:36.285Z,35.39
2018-07-17T11:38:36.405Z,35.66
2018-07-17T11:39:36.642Z,35.68
2018-07-17T11:40:36.297Z,34.83
2018-07-17T11:41:36.295Z,34.40
2018-07-17T11:43:36.304Z,34.59
2018-07-17T11:44:36.576Z,34.79
2018-07-17T11:45:36.632Z,35.16
2018-07-17T11:46:36.476Z,34.92
2018-07-17T11:47:36.731Z,34.34
2018-07-17T11:48:36.444Z,34.34
2018-07-17T11:49:36.368Z,34.50
2018-07-17T11:50:36.421Z,34.52
2018-07-17T11:51:36.624Z,34.50
2018-07-17T11:52:36.339Z,34.47
2018-07-17T11:54:36.415Z,34.91
2018-07-17T11:55:36.392Z,35.42
2018-07-17T11:56:36.441Z,35.32
2018-07-17T11:57:36.676Z,35.42
2018-07-17T11:58:36.535Z,35.16
2018-07-17T11:59:36.645Z,35.60
2018-07-17T12:00:36.395Z,35.69
2018-07-17T12:01:36.473Z,36.20
2018-07-17T12:02:36.482Z,36.42
2018-07-17T12:03:36.674Z,36.78
2018-07-17T12:04:36.414Z,37.16
2018-07-17T12:05:36.688Z,36.88
2018-07-17T12:07:36.459Z,36.60
2018-07-17T12:08:36.565Z,36.69
2018-07-17T12:09:37.943Z,36.85
2018-07-17T12:10:37.674Z,36.04
2018-07-17T12:12:36.554Z,34.38
2018-07-17T12:13:36.413Z,33.89
2018-07-17T12:14:36.475Z,33.20
2018-07-17T12:15:36.720Z,32.99
2018-07-17T12:16:36.511Z,32.70
2018-07-17T12:17:36.961Z,32.21
2018-07-17T12:18:36.458Z,32.87
2018-07-17T12:19:36.422Z,33.54
2018-07-17T12:20:36.744Z,33.97
2018-07-17T12:24:36.815Z,34.60
2018-07-17T12:25:36.467Z,34.63
2018-07-17T12:26:36.510Z,35.10
2018-07-17T12:27:36.753Z,34.57
2018-07-17T12:28:36.453Z,34.04
2018-07-17T12:29:36.479Z,33.70
2018-07-17T12:30:36.814Z,33.47
2018-07-17T12:31:36.477Z,33.91
2018-07-17T12:32:36.702Z,33.93
2018-07-17T12:33:36.803Z,32.79
2018-07-17T12:34:36.823Z,31.90
2018-07-17T12:35:36.924Z,31.42
2018-07-17T12:36:38.399Z,30.99
2018-07-17T12:37:36.669Z,30.97
2018-07-17T12:38:36.563Z,31.26
2018-07-17T12:39:36.460Z,31.23
2018-07-17T12:40:37.152Z,31.17
2018-07-17T12:41:37.869Z,30.95
2018-07-17T12:42:38.829Z,30.90
2018-07-17T12:43:37.019Z,30.93
2018-07-17T12:46:38.578Z,32.04
2018-07-17T12:49:36.980Z,31.29
2018-07-17T12:50:36.873Z,31.17
2018-07-17T12:52:36.867Z,31.54
2018-07-17T12:53:36.616Z,31.26
2018-07-17T12:54:36.488Z,31.14
2018-07-17T12:55:36.917Z,31.57
2018-07-17T12:56:36.536Z,31.75
2018-07-17T12:59:36.539Z,30.55
2018-07-17T13:01:36.924Z,30.67
2018-07-17T13:02:37.570Z,30.52
2018-07-17T13:03:36.529Z,30.33
2018-07-17T13:04:36.486Z,30.24
2018-07-17T13:05:36.766Z,30.21
2018-07-17T13:06:37.337Z,31.45
2018-07-17T13:07:38.383Z,32.45
2018-07-17T13:10:36.644Z,31.76
2018-07-17T13:11:38.525Z,31.42
2018-07-17T13:12:36.992Z,31.37
2018-07-17T13:15:36.901Z,33.20
2018-07-17T13:16:37.484Z,33.19
2018-07-17T13:17:36.506Z,33.49
2018-07-17T13:18:36.461Z,33.20
2018-07-17T13:20:37.724Z,33.86
2018-07-17T13:23:36.976Z,34.76
2018-07-17T13:31:43.578Z,35.44
2018-07-17T13:34:38.345Z,36.09
2018-07-17T13:36:38.454Z,35.88
2018-07-17T13:39:38.570Z,36.42
2018-07-17T13:43:37.408Z,36.25
2018-07-17T13:45:43.856Z,36.27
2018-07-17T13:46:37.549Z,36.26
2018-07-17T13:47:37.612Z,36.23
2018-07-17T13:48:36.939Z,36.27
2018-07-17T13:49:38.243Z,36.17
2018-07-17T13:50:37.732Z,36.19
2018-07-17T13:51:36.503Z,36.03
2018-07-17T13:52:36.540Z,36.42
2018-07-17T13:53:37.163Z,36.40
2018-07-17T13:54:36.843Z,36.42
2018-07-17T13:55:39.862Z,35.72
2018-07-17T13:56:36.504Z,35.41
2018-07-17T13:57:37.934Z,35.51
2018-07-17T13:59:37.037Z,36.06
2018-07-17T14:01:37.492Z,36.25
2018-07-17T14:02:36.663Z,36.42
2018-07-17T14:04:36.825Z,36.41
2018-07-17T14:05:36.670Z,36.57
2018-07-17T14:06:37.762Z,36.42
2018-07-17T14:09:38.029Z,36.27
2018-07-17T14:10:38.073Z,35.76
2018-07-17T14:11:37.377Z,35.54
2018-07-17T14:12:37.413Z,35.85
2018-07-17T14:13:37.731Z,36.04
2018-07-17T14:14:36.896Z,35.77
2018-07-17T14:15:52.323Z,35.44
2018-07-17T14:18:36.790Z,35.02
2018-07-17T14:22:36.861Z,36.06
2018-07-17T14:23:37.057Z,36.32
2018-07-17T14:24:36.797Z,36.35
2018-07-17T14:25:36.909Z,36.47
2018-07-17T14:26:37.065Z,36.27
2018-07-17T14:27:36.750Z,36.04
2018-07-17T14:28:36.908Z,35.75
2018-07-17T14:29:37.068Z,35.31
2018-07-17T14:30:36.827Z,34.37
2018-07-17T14:31:36.736Z,33.73
2018-07-17T14:32:37.681Z,32.98
2018-07-17T14:33:36.692Z,32.55
2018-07-17T14:34:36.982Z,32.55
2018-07-17T14:35:37.035Z,33.19
2018-07-17T14:37:36.717Z,34.37
2018-07-17T14:38:37.147Z,34.86
2018-07-17T14:39:36.718Z,35.20
2018-07-17T14:40:36.946Z,35.54
2018-07-17T14:41:37.708Z,34.64
2018-07-17T14:42:37.021Z,34.70
2018-07-17T14:43:36.692Z,34.64
2018-07-17T14:44:37.519Z,34.28
2018-07-17T14:45:36.699Z,33.64
2018-07-17T14:46:36.797Z,33.44
2018-07-17T14:47:36.711Z,33.07
2018-07-17T14:48:36.983Z,32.14
2018-07-17T14:49:36.833Z,31.70